createdAt,value
2016-09-18T00:00:33.962Z,1009.81
2016-09-18T00:01:14.508Z,1009.79
2016-09-18T00:01:55.054Z,1009.8
2016-09-18T00:02:35.595Z,1009.85
2016-09-18T00:03:16.143Z,1009.83
2016-09-18T00:03:56.694Z,1009.87
2016-09-18T00:04:37.242Z,1009.84
2016-09-18T00:05:17.783Z,1009.85
2016-09-18T00:05:58.327Z,1009.85
2016-09-18T00:06:38.852Z,1009.83
2016-09-18T00:07:19.401Z,1009.84
2016-09-18T00:07:59.953Z,1009.85
2016-09-18T00:08:40.487Z,1009.79
2016-09-18T00:09:21.059Z,1009.86
2016-09-18T00:10:01.595Z,1009.87
2016-09-18T00:10:42.138Z,1009.84
2016-09-18T00:11:22.680Z,1009.82
2016-09-18T00:12:03.226Z,1009.84
2016-09-18T00:12:43.774Z,1009.81
2016-09-18T00:13:24.320Z,1009.82
2016-09-18T00:14:04.868Z,1009.82
2016-09-18T00:14:45.416Z,1009.81
2016-09-18T00:15:25.966Z,1009.83
2016-09-18T00:16:06.499Z,1009.83
2016-09-18T00:16:47.035Z,1009.82
2016-09-18T00:17:27.583Z,1009.83
2016-09-18T00:18:08.126Z,1009.82
2016-09-18T00:18:48.668Z,1009.8
2016-09-18T00:19:29.217Z,1009.82
2016-09-18T00:20:09.756Z,1009.84
2016-09-18T00:20:50.302Z,1009.84
2016-09-18T00:21:30.848Z,1009.81
2016-09-18T00:22:11.377Z,1009.87
2016-09-18T00:22:51.922Z,1009.85
2016-09-18T00:23:32.465Z,1009.87
2016-09-18T00:24:12.997Z,1009.84
2016-09-18T00:24:53.536Z,1009.79
2016-09-18T00:25:34.071Z,1009.78
2016-09-18T00:26:14.609Z,1009.78
2016-09-18T00:26:55.157Z,1009.79
2016-09-18T00:27:35.702Z,1009.77
2016-09-18T00:28:16.248Z,1009.76
2016-09-18T00:28:56.794Z,1009.78
2016-09-18T00:29:37.343Z,1009.77
2016-09-18T00:30:17.909Z,1009.74
2016-09-18T00:30:58.459Z,1009.73
2016-09-18T00:31:39.007Z,1009.72
2016-09-18T00:32:19.552Z,1009.73
2016-09-18T00:33:00.099Z,1009.73
2016-09-18T00:33:40.671Z,1009.76
2016-09-18T00:34:21.218Z,1009.72
2016-09-18T00:35:01.765Z,1009.76
2016-09-18T00:35:42.317Z,1009.73
2016-09-18T00:36:22.863Z,1009.75
2016-09-18T00:37:03.406Z,1009.74
2016-09-18T00:37:43.956Z,1009.74
2016-09-18T00:38:24.499Z,1009.78
2016-09-18T00:39:05.045Z,1009.74
2016-09-18T00:39:45.588Z,1009.76
2016-09-18T00:40:26.123Z,1009.74
2016-09-18T00:41:06.660Z,1009.75
2016-09-18T00:41:47.207Z,1009.72
2016-09-18T00:42:27.743Z,1009.76
2016-09-18T00:43:08.293Z,1009.76
2016-09-18T00:43:48.825Z,1009.75
2016-09-18T00:44:29.372Z,1009.75
2016-09-18T00:45:09.924Z,1009.77
2016-09-18T00:45:50.467Z,1009.74
2016-09-18T00:46:31.008Z,1009.74
2016-09-18T00:47:11.554Z,1009.76
2016-09-18T00:47:52.107Z,1009.78
2016-09-18T00:48:32.625Z,1009.71
2016-09-18T00:49:13.167Z,1009.73
2016-09-18T00:49:53.707Z,1009.72
2016-09-18T00:50:34.247Z,1009.72
2016-09-18T00:51:14.806Z,1009.73
2016-09-18T00:51:55.334Z,1009.74
2016-09-18T00:52:35.874Z,1009.73
2016-09-18T00:53:16.412Z,1009.72
2016-09-18T00:53:56.960Z,1009.68
2016-09-18T00:54:37.508Z,1009.68
2016-09-18T00:55:18.042Z,1009.69
2016-09-18T00:55:58.589Z,1009.67
2016-09-18T00:56:39.123Z,1009.7
2016-09-18T00:57:19.665Z,1009.71
2016-09-18T00:58:00.210Z,1009.73
2016-09-18T00:58:40.754Z,1009.68
2016-09-18T00:59:21.292Z,1009.71
2016-09-18T01:00:01.852Z,1009.72
2016-09-18T01:00:42.384Z,1009.71
2016-09-18T01:01:22.941Z,1009.7
2016-09-18T01:02:03.493Z,1009.67
2016-09-18T01:02:44.043Z,1009.68
2016-09-18T01:03:24.595Z,1009.68
2016-09-18T01:04:05.131Z,1009.65
2016-09-18T01:04:45.672Z,1009.63
2016-09-18T01:05:26.220Z,1009.59
2016-09-18T01:06:06.762Z,1009.64
2016-09-18T01:06:47.300Z,1009.64
2016-09-18T01:07:27.819Z,1009.62
2016-09-18T01:08:08.359Z,1009.6
2016-09-18T01:08:48.902Z,1009.62
2016-09-18T01:09:29.450Z,1009.59
2016-09-18T01:10:10.000Z,1009.56
2016-09-18T01:10:50.529Z,1009.57
2016-09-18T01:11:31.078Z,1009.54
2016-09-18T01:12:11.624Z,1009.55
2016-09-18T01:12:52.148Z,1009.55
2016-09-18T01:13:32.694Z,1009.53
2016-09-18T01:14:13.212Z,1009.53
2016-09-18T01:14:53.754Z,1009.51
2016-09-18T01:15:34.290Z,1009.49
2016-09-18T01:16:14.832Z,1009.48
2016-09-18T01:16:55.385Z,1009.5
2016-09-18T01:17:35.929Z,1009.5
2016-09-18T01:18:16.480Z,1009.51
2016-09-18T01:18:57.032Z,1009.51
2016-09-18T01:19:37.575Z,1009.48
2016-09-18T01:20:18.112Z,1009.48
2016-09-18T01:20:58.651Z,1009.5
2016-09-18T01:21:39.200Z,1009.47
2016-09-18T01:22:19.740Z,1009.52
2016-09-18T01:23:00.285Z,1009.49
2016-09-18T01:23:40.829Z,1009.47
2016-09-18T01:24:21.364Z,1009.48
2016-09-18T01:25:01.924Z,1009.47
2016-09-18T01:25:42.465Z,1009.45
2016-09-18T01:26:23.019Z,1009.46
2016-09-18T01:27:03.572Z,1009.48
2016-09-18T01:27:44.097Z,1009.47
2016-09-18T01:28:24.645Z,1009.52
2016-09-18T01:29:05.184Z,1009.46
2016-09-18T01:29:45.723Z,1009.45
2016-09-18T01:30:26.261Z,1009.47
2016-09-18T01:31:06.791Z,1009.47
2016-09-18T01:31:47.339Z,1009.46
2016-09-18T01:32:27.878Z,1009.47
2016-09-18T01:33:08.423Z,1009.42
2016-09-18T01:33:48.973Z,1009.41
2016-09-18T01:34:29.525Z,1009.4
2016-09-18T01:35:10.069Z,1009.39
2016-09-18T01:35:50.615Z,1009.38
2016-09-18T01:36:31.164Z,1009.41
2016-09-18T01:37:11.698Z,1009.39
2016-09-18T01:37:52.224Z,1009.38
2016-09-18T01:38:32.772Z,1009.41
2016-09-18T01:39:13.302Z,1009.38
2016-09-18T01:39:53.854Z,1009.38
2016-09-18T01:40:34.396Z,1009.38
2016-09-18T01:41:14.947Z,1009.36
2016-09-18T01:41:55.484Z,1009.34
2016-09-18T01:42:36.031Z,1009.39
2016-09-18T01:43:16.569Z,1009.34
2016-09-18T01:43:57.109Z,1009.35
2016-09-18T01:44:37.660Z,1009.41
2016-09-18T01:45:18.207Z,1009.41
2016-09-18T01:45:58.758Z,1009.4
2016-09-18T01:46:39.308Z,1009.42
2016-09-18T01:47:19.858Z,1009.42
2016-09-18T01:48:00.409Z,1009.39
2016-09-18T01:48:40.955Z,1009.4
2016-09-18T01:49:21.482Z,1009.37
2016-09-18T01:50:02.028Z,1009.38
2016-09-18T01:50:42.564Z,1009.36
2016-09-18T01:51:23.108Z,1009.33
2016-09-18T01:52:03.658Z,1009.33
2016-09-18T01:52:44.225Z,1009.36
2016-09-18T01:53:24.737Z,1009.31
2016-09-18T01:54:05.293Z,1009.33
2016-09-18T01:54:45.847Z,1009.32
2016-09-18T01:55:26.395Z,1009.33
2016-09-18T01:56:06.944Z,1009.35
2016-09-18T01:56:47.492Z,1009.33
2016-09-18T01:57:28.029Z,1009.36
2016-09-18T01:58:08.574Z,1009.3
2016-09-18T01:58:49.125Z,1009.36
2016-09-18T01:59:29.675Z,1009.33
2016-09-18T02:00:10.221Z,1009.35
2016-09-18T02:00:50.762Z,1009.34
2016-09-18T02:01:31.271Z,1009.31
2016-09-18T02:02:11.825Z,1009.3
2016-09-18T02:02:52.363Z,1009.31
2016-09-18T02:03:32.910Z,1009.31
2016-09-18T02:04:13.471Z,1009.31
2016-09-18T02:04:54.015Z,1009.31
2016-09-18T02:05:34.544Z,1009.34
2016-09-18T02:06:15.109Z,1009.33
2016-09-18T02:06:55.663Z,1009.35
2016-09-18T02:07:36.202Z,1009.37
2016-09-18T02:08:16.739Z,1009.35
2016-09-18T02:08:57.285Z,1009.37
2016-09-18T02:09:37.832Z,1009.37
2016-09-18T02:10:18.379Z,1009.35
2016-09-18T02:10:58.927Z,1009.37
2016-09-18T02:11:39.469Z,1009.34
2016-09-18T02:12:20.003Z,1009.38
2016-09-18T02:13:00.544Z,1009.39
2016-09-18T02:13:41.088Z,1009.38
2016-09-18T02:14:21.631Z,1009.37
2016-09-18T02:15:02.173Z,1009.36
2016-09-18T02:15:42.717Z,1009.37
2016-09-18T02:16:23.273Z,1009.38
2016-09-18T02:17:03.817Z,1009.34
2016-09-18T02:17:44.355Z,1009.33
2016-09-18T02:18:24.899Z,1009.31
2016-09-18T02:19:05.445Z,1009.34
2016-09-18T02:19:45.974Z,1009.3
2016-09-18T02:20:26.515Z,1009.34
2016-09-18T02:21:07.073Z,1009.34
2016-09-18T02:21:47.605Z,1009.34
2016-09-18T02:22:28.144Z,1009.32
2016-09-18T02:23:08.692Z,1009.28
2016-09-18T02:23:49.227Z,1009.31
2016-09-18T02:24:29.773Z,1009.31
2016-09-18T02:25:10.316Z,1009.29
2016-09-18T02:25:50.866Z,1009.34
2016-09-18T02:26:31.405Z,1009.32
2016-09-18T02:27:11.951Z,1009.29
2016-09-18T02:27:52.486Z,1009.34
2016-09-18T02:28:33.040Z,1009.29
2016-09-18T02:29:13.550Z,1009.3
2016-09-18T02:29:54.096Z,1009.28
2016-09-18T02:30:34.635Z,1009.29
2016-09-18T02:31:15.182Z,1009.29
2016-09-18T02:31:55.738Z,1009.3
2016-09-18T02:32:36.297Z,1009.29
2016-09-18T02:33:16.833Z,1009.3
2016-09-18T02:33:57.382Z,1009.29
2016-09-18T02:34:37.935Z,1009.29
2016-09-18T02:35:18.485Z,1009.27
2016-09-18T02:35:59.026Z,1009.26
2016-09-18T02:36:39.569Z,1009.28
2016-09-18T02:37:20.111Z,1009.27
2016-09-18T02:38:00.643Z,1009.29
2016-09-18T02:38:41.203Z,1009.26
2016-09-18T02:39:21.745Z,1009.24
2016-09-18T02:40:02.280Z,1009.23
2016-09-18T02:40:42.814Z,1009.23
2016-09-18T02:41:23.365Z,1009.2
2016-09-18T02:42:03.918Z,1009.22
2016-09-18T02:42:44.448Z,1009.23
2016-09-18T02:43:24.997Z,1009.24
2016-09-18T02:44:05.544Z,1009.19
2016-09-18T02:44:46.092Z,1009.19
2016-09-18T02:45:26.631Z,1009.22
2016-09-18T02:46:07.177Z,1009.24
2016-09-18T02:46:47.730Z,1009.2
2016-09-18T02:47:28.278Z,1009.21
2016-09-18T02:48:08.822Z,1009.17
2016-09-18T02:48:49.365Z,1009.17
2016-09-18T02:49:29.902Z,1009.22
2016-09-18T02:50:10.443Z,1009.22
2016-09-18T02:50:50.971Z,1009.2
2016-09-18T02:51:31.522Z,1009.18
2016-09-18T02:52:12.057Z,1009.17
2016-09-18T02:52:52.607Z,1009.18
2016-09-18T02:53:33.155Z,1009.17
2016-09-18T02:54:13.681Z,1009.14
2016-09-18T02:54:54.224Z,1009.19
2016-09-18T02:55:34.779Z,1009.16
2016-09-18T02:56:15.324Z,1009.19
2016-09-18T02:56:55.848Z,1009.21
2016-09-18T02:57:36.396Z,1009.16
2016-09-18T02:58:16.919Z,1009.15
2016-09-18T02:58:57.464Z,1009.15
2016-09-18T02:59:38.006Z,1009.14
2016-09-18T03:00:18.556Z,1009.18
2016-09-18T03:00:59.108Z,1009.18
2016-09-18T03:01:39.655Z,1009.18
2016-09-18T03:02:20.197Z,1009.16
2016-09-18T03:03:00.742Z,1009.17
2016-09-18T03:03:41.284Z,1009.17
2016-09-18T03:04:21.831Z,1009.13
2016-09-18T03:05:02.373Z,1009.15
2016-09-18T03:05:42.931Z,1009.16
2016-09-18T03:06:23.476Z,1009.17
2016-09-18T03:07:04.031Z,1009.16
2016-09-18T03:07:44.569Z,1009.16
2016-09-18T03:08:25.107Z,1009.15
2016-09-18T03:09:05.651Z,1009.15
2016-09-18T03:09:46.193Z,1009.15
2016-09-18T03:10:26.741Z,1009.18
2016-09-18T03:11:07.281Z,1009.19
2016-09-18T03:11:47.825Z,1009.16
2016-09-18T03:12:28.370Z,1009.19
2016-09-18T03:13:08.922Z,1009.19
2016-09-18T03:13:49.466Z,1009.17
2016-09-18T03:14:30.005Z,1009.21
2016-09-18T03:15:10.541Z,1009.2
2016-09-18T03:15:51.084Z,1009.17
2016-09-18T03:16:31.627Z,1009.21
2016-09-18T03:17:12.167Z,1009.22
2016-09-18T03:17:52.714Z,1009.21
2016-09-18T03:18:33.250Z,1009.2
2016-09-18T03:19:13.801Z,1009.19
2016-09-18T03:19:54.334Z,1009.19
2016-09-18T03:20:34.882Z,1009.19
2016-09-18T03:21:15.430Z,1009.19
2016-09-18T03:21:55.980Z,1009.16
2016-09-18T03:22:36.531Z,1009.17
2016-09-18T03:23:17.080Z,1009.16
2016-09-18T03:23:57.627Z,1009.13
2016-09-18T03:24:38.182Z,1009.12
2016-09-18T03:25:18.734Z,1009.12
2016-09-18T03:25:59.277Z,1009.12
2016-09-18T03:26:39.817Z,1009.09
2016-09-18T03:27:20.366Z,1009.08
2016-09-18T03:28:00.909Z,1009.06
2016-09-18T03:28:41.436Z,1009.07
2016-09-18T03:29:21.983Z,1009.08
2016-09-18T03:30:02.517Z,1009.06
2016-09-18T03:30:43.070Z,1009.09
2016-09-18T03:31:23.620Z,1009.09
2016-09-18T03:32:04.146Z,1009.09
2016-09-18T03:32:44.695Z,1009.07
2016-09-18T03:33:25.247Z,1009.1
2016-09-18T03:34:05.799Z,1009.04
2016-09-18T03:34:46.353Z,1009.05
2016-09-18T03:35:26.896Z,1009.04
2016-09-18T03:36:07.469Z,1009.04
2016-09-18T03:36:48.000Z,1009.02
2016-09-18T03:37:28.540Z,1008.96
2016-09-18T03:38:09.089Z,1008.95
2016-09-18T03:38:49.689Z,1008.98
2016-09-18T03:39:30.224Z,1008.96
2016-09-18T03:40:10.759Z,1008.98
2016-09-18T03:40:51.306Z,1008.98
2016-09-18T03:41:31.853Z,1008.98
2016-09-18T03:42:12.402Z,1008.95
2016-09-18T03:42:52.946Z,1008.98
2016-09-18T03:43:33.494Z,1008.97
2016-09-18T03:44:14.039Z,1008.96
2016-09-18T03:44:54.585Z,1008.99
2016-09-18T03:45:35.142Z,1008.98
2016-09-18T03:46:15.688Z,1009.01
2016-09-18T03:46:56.232Z,1009.02
2016-09-18T03:47:36.770Z,1009.03
2016-09-18T03:48:17.316Z,1009.03
2016-09-18T03:48:57.853Z,1009.05
2016-09-18T03:49:38.398Z,1009.05
2016-09-18T03:50:18.945Z,1009.04
2016-09-18T03:50:59.490Z,1009.09
2016-09-18T03:51:40.050Z,1009.06
2016-09-18T03:52:20.552Z,1009.07
2016-09-18T03:53:01.089Z,1009.04
2016-09-18T03:53:41.635Z,1009.05
2016-09-18T03:54:22.183Z,1009.07
2016-09-18T03:55:02.727Z,1009.01
2016-09-18T03:55:43.264Z,1009
2016-09-18T03:56:23.803Z,1009.03
2016-09-18T03:57:04.349Z,1009.01
2016-09-18T03:57:44.877Z,1009.04
2016-09-18T03:58:25.420Z,1009.04
2016-09-18T03:59:05.970Z,1009.02
2016-09-18T03:59:46.512Z,1009.03
2016-09-18T04:00:27.050Z,1009.03
2016-09-18T04:01:07.601Z,1009
2016-09-18T04:01:48.149Z,1009.01
2016-09-18T04:02:28.690Z,1009.02
2016-09-18T04:03:09.223Z,1008.99
2016-09-18T04:03:49.757Z,1008.98
2016-09-18T04:04:30.312Z,1009
2016-09-18T04:05:10.856Z,1009.02
2016-09-18T04:05:51.397Z,1009
2016-09-18T04:06:31.941Z,1009
2016-09-18T04:07:12.483Z,1009.01
2016-09-18T04:07:53.029Z,1009
2016-09-18T04:08:33.563Z,1009
2016-09-18T04:09:14.108Z,1009
2016-09-18T04:09:54.666Z,1008.98
2016-09-18T04:10:35.208Z,1008.97
2016-09-18T04:11:15.761Z,1008.96
2016-09-18T04:11:56.300Z,1008.97
2016-09-18T04:12:36.841Z,1008.99
2016-09-18T04:13:17.365Z,1008.95
2016-09-18T04:13:57.911Z,1008.92
2016-09-18T04:14:38.458Z,1008.93
2016-09-18T04:15:18.992Z,1008.91
2016-09-18T04:15:59.541Z,1008.91
2016-09-18T04:16:40.082Z,1008.91
2016-09-18T04:17:20.683Z,1008.87
2016-09-18T04:18:01.214Z,1008.83
2016-09-18T04:18:41.753Z,1008.83
2016-09-18T04:19:22.298Z,1008.81
2016-09-18T04:20:02.861Z,1008.81
2016-09-18T04:20:43.397Z,1008.76
2016-09-18T04:21:23.947Z,1008.77
2016-09-18T04:22:04.489Z,1008.74
2016-09-18T04:22:45.022Z,1008.77
2016-09-18T04:23:25.565Z,1008.77
2016-09-18T04:24:06.095Z,1008.79
2016-09-18T04:24:46.643Z,1008.79
2016-09-18T04:25:27.201Z,1008.78
2016-09-18T04:26:07.743Z,1008.79
2016-09-18T04:26:48.289Z,1008.77
2016-09-18T04:27:28.821Z,1008.79
2016-09-18T04:28:09.371Z,1008.76
2016-09-18T04:28:49.923Z,1008.77
2016-09-18T04:29:30.486Z,1008.78
2016-09-18T04:30:11.029Z,1008.79
2016-09-18T04:30:51.577Z,1008.78
2016-09-18T04:31:32.127Z,1008.78
2016-09-18T04:32:12.658Z,1008.76
2016-09-18T04:32:53.208Z,1008.79
2016-09-18T04:33:33.743Z,1008.78
2016-09-18T04:34:14.302Z,1008.8
2016-09-18T04:34:54.827Z,1008.79
2016-09-18T04:35:35.366Z,1008.77
2016-09-18T04:36:15.910Z,1008.77
2016-09-18T04:36:56.450Z,1008.77
2016-09-18T04:37:36.992Z,1008.78
2016-09-18T04:38:17.544Z,1008.8
2016-09-18T04:38:58.074Z,1008.82
2016-09-18T04:39:38.619Z,1008.84
2016-09-18T04:40:19.165Z,1008.83
2016-09-18T04:40:59.717Z,1008.84
2016-09-18T04:41:40.264Z,1008.81
2016-09-18T04:42:20.801Z,1008.85
2016-09-18T04:43:01.348Z,1008.87
2016-09-18T04:43:41.894Z,1008.87
2016-09-18T04:44:22.451Z,1008.89
2016-09-18T04:45:03.022Z,1008.87
2016-09-18T04:45:43.551Z,1008.9
2016-09-18T04:46:24.095Z,1008.9
2016-09-18T04:47:04.620Z,1008.92
2016-09-18T04:47:45.162Z,1008.87
2016-09-18T04:48:25.702Z,1008.9
2016-09-18T04:49:06.246Z,1008.88
2016-09-18T04:49:46.795Z,1008.94
2016-09-18T04:50:27.330Z,1008.89
2016-09-18T04:51:07.880Z,1008.91
2016-09-18T04:51:48.425Z,1008.91
2016-09-18T04:52:28.961Z,1008.88
2016-09-18T04:53:09.506Z,1008.88
2016-09-18T04:53:50.053Z,1008.93
2016-09-18T04:54:30.595Z,1008.9
2016-09-18T04:55:11.135Z,1008.9
2016-09-18T04:55:51.667Z,1008.91
2016-09-18T04:56:32.206Z,1008.94
2016-09-18T04:57:12.754Z,1008.92
2016-09-18T04:57:53.307Z,1008.96
2016-09-18T04:58:33.851Z,1008.94
2016-09-18T04:59:14.409Z,1008.96
2016-09-18T04:59:54.957Z,1008.96
2016-09-18T05:00:35.483Z,1008.94
2016-09-18T05:01:16.024Z,1008.95
2016-09-18T05:01:56.570Z,1008.94
2016-09-18T05:02:37.112Z,1008.95
2016-09-18T05:03:17.661Z,1008.95
2016-09-18T05:03:58.200Z,1008.96
2016-09-18T05:04:38.741Z,1008.94
2016-09-18T05:05:19.285Z,1008.99
2016-09-18T05:05:59.832Z,1008.95
2016-09-18T05:06:40.378Z,1008.93
2016-09-18T05:07:20.933Z,1008.87
2016-09-18T05:08:01.502Z,1008.89
2016-09-18T05:08:42.043Z,1008.87
2016-09-18T05:09:22.572Z,1008.89
2016-09-18T05:10:03.117Z,1008.92
2016-09-18T05:10:43.656Z,1008.88
2016-09-18T05:11:24.199Z,1008.95
2016-09-18T05:12:04.751Z,1008.96
2016-09-18T05:12:45.301Z,1008.99
2016-09-18T05:13:25.856Z,1009
2016-09-18T05:14:06.403Z,1008.99
2016-09-18T05:14:46.921Z,1009
2016-09-18T05:15:27.449Z,1009.02
2016-09-18T05:17:21.516Z,1009.04
2016-09-18T05:18:02.048Z,1008.99
2016-09-18T05:18:42.600Z,1009.02
2016-09-18T05:19:23.093Z,1009.03
2016-09-18T05:20:03.650Z,1009.02
2016-09-18T05:20:44.204Z,1009.02
2016-09-18T05:21:24.729Z,1009.03
2016-09-18T05:22:05.267Z,1009.07
2016-09-18T05:22:45.801Z,1009.04
2016-09-18T05:23:26.352Z,1009.07
2016-09-18T05:24:06.885Z,1009.07
2016-09-18T05:24:47.414Z,1009.09
2016-09-18T05:25:28.239Z,1009.06
2016-09-18T05:26:08.795Z,1009.11
2016-09-18T05:26:49.331Z,1009.1
2016-09-18T05:27:29.859Z,1009.15
2016-09-18T05:28:10.393Z,1009.14
2016-09-18T05:28:50.922Z,1009.11
2016-09-18T05:29:31.458Z,1009.14
2016-09-18T05:30:11.981Z,1009.12
2016-09-18T05:30:52.530Z,1009.15
2016-09-18T05:31:33.066Z,1009.14
2016-09-18T05:32:13.605Z,1009.15
2016-09-18T05:32:54.150Z,1009.15
2016-09-18T05:33:34.692Z,1009.13
2016-09-18T05:34:15.234Z,1009.13
2016-09-18T05:34:55.922Z,1009.15
2016-09-18T05:35:36.460Z,1009.13
2016-09-18T05:36:17.002Z,1009.15
2016-09-18T05:36:57.553Z,1009.14
2016-09-18T05:37:38.100Z,1009.17
2016-09-18T05:38:18.643Z,1009.17
2016-09-18T05:38:59.180Z,1009.16
2016-09-18T05:39:39.730Z,1009.17
2016-09-18T05:40:20.282Z,1009.16
2016-09-18T05:41:00.827Z,1009.16
2016-09-18T05:41:41.367Z,1009.13
2016-09-18T05:42:21.895Z,1009.16
2016-09-18T05:43:02.430Z,1009.18
2016-09-18T05:43:43.111Z,1009.14
2016-09-18T05:44:23.808Z,1009.16
2016-09-18T05:45:04.357Z,1009.16
2016-09-18T05:45:44.908Z,1009.14
2016-09-18T05:46:25.458Z,1009.14
2016-09-18T05:47:05.997Z,1009.16
2016-09-18T05:47:46.546Z,1009.15
2016-09-18T05:48:27.095Z,1009.15
2016-09-18T05:49:07.651Z,1009.14
2016-09-18T05:49:48.187Z,1009.15
2016-09-18T05:50:28.721Z,1009.14
2016-09-18T05:51:09.259Z,1009.16
2016-09-18T05:51:49.794Z,1009.15
2016-09-18T05:52:30.343Z,1009.16
2016-09-18T05:53:10.887Z,1009.19
2016-09-18T05:53:51.426Z,1009.17
2016-09-18T05:54:31.968Z,1009.22
2016-09-18T05:55:12.531Z,1009.24
2016-09-18T05:55:53.362Z,1009.22
2016-09-18T05:56:33.899Z,1009.25
2016-09-18T05:57:14.442Z,1009.32
2016-09-18T05:57:54.984Z,1009.29
2016-09-18T05:58:35.527Z,1009.34
2016-09-18T05:59:16.061Z,1009.32
2016-09-18T05:59:56.594Z,1009.34
2016-09-18T06:00:37.137Z,1009.34
2016-09-18T06:01:17.678Z,1009.34
2016-09-18T06:01:58.216Z,1009.32
2016-09-18T06:02:38.758Z,1009.33
2016-09-18T06:03:19.307Z,1009.34
2016-09-18T06:03:59.846Z,1009.33
2016-09-18T06:04:40.388Z,1009.3
2016-09-18T06:05:20.932Z,1009.34
2016-09-18T06:06:01.468Z,1009.35
2016-09-18T06:06:42.017Z,1009.32
2016-09-18T06:07:22.575Z,1009.35
2016-09-18T06:08:03.095Z,1009.31
2016-09-18T06:08:43.650Z,1009.33
2016-09-18T06:09:24.185Z,1009.33
2016-09-18T06:10:04.738Z,1009.3
2016-09-18T06:10:45.287Z,1009.26
2016-09-18T06:11:25.821Z,1009.28
2016-09-18T06:12:06.381Z,1009.28
2016-09-18T06:12:46.890Z,1009.3
2016-09-18T06:13:27.432Z,1009.29
2016-09-18T06:14:07.974Z,1009.27
2016-09-18T06:14:48.524Z,1009.26
2016-09-18T06:15:29.055Z,1009.26
2016-09-18T06:16:09.601Z,1009.27
2016-09-18T06:16:50.147Z,1009.27
2016-09-18T06:17:30.697Z,1009.25
2016-09-18T06:18:11.247Z,1009.28
2016-09-18T06:18:51.786Z,1009.29
2016-09-18T06:19:32.332Z,1009.32
2016-09-18T06:20:12.875Z,1009.26
2016-09-18T06:20:53.418Z,1009.29
2016-09-18T06:21:33.967Z,1009.3
2016-09-18T06:22:14.504Z,1009.29
2016-09-18T06:22:55.047Z,1009.32
2016-09-18T06:23:35.593Z,1009.33
2016-09-18T06:24:16.140Z,1009.33
2016-09-18T06:24:56.682Z,1009.32
2016-09-18T06:25:37.234Z,1009.34
2016-09-18T06:26:17.772Z,1009.34
2016-09-18T06:26:58.318Z,1009.31
2016-09-18T06:27:38.869Z,1009.3
2016-09-18T06:28:19.415Z,1009.36
2016-09-18T06:28:59.942Z,1009.32
2016-09-18T06:29:40.488Z,1009.34
2016-09-18T06:30:21.024Z,1009.4
2016-09-18T06:31:01.569Z,1009.42
2016-09-18T06:31:42.092Z,1009.44
2016-09-18T06:32:22.640Z,1009.42
2016-09-18T06:33:03.175Z,1009.46
2016-09-18T06:33:43.731Z,1009.45
2016-09-18T06:34:24.275Z,1009.42
2016-09-18T06:35:04.830Z,1009.46
2016-09-18T06:35:45.375Z,1009.42
2016-09-18T06:36:25.923Z,1009.42
2016-09-18T06:37:06.468Z,1009.39
2016-09-18T06:37:47.008Z,1009.36
2016-09-18T06:38:27.553Z,1009.35
2016-09-18T06:39:08.103Z,1009.31
2016-09-18T06:39:48.634Z,1009.31
2016-09-18T06:40:29.168Z,1009.31
2016-09-18T06:41:09.712Z,1009.33
2016-09-18T06:41:50.257Z,1009.37
2016-09-18T06:42:30.799Z,1009.38
2016-09-18T06:43:11.343Z,1009.37
2016-09-18T06:43:51.887Z,1009.39
2016-09-18T06:44:32.789Z,1009.46
2016-09-18T06:45:13.485Z,1009.45
2016-09-18T06:45:54.024Z,1009.41
2016-09-18T06:46:34.574Z,1009.4
2016-09-18T06:47:15.121Z,1009.4
2016-09-18T06:47:55.662Z,1009.39
2016-09-18T06:48:36.561Z,1009.41
2016-09-18T06:49:17.129Z,1009.41
2016-09-18T06:49:57.681Z,1009.4
2016-09-18T06:50:38.218Z,1009.42
2016-09-18T06:51:18.761Z,1009.39
2016-09-18T06:51:59.313Z,1009.41
2016-09-18T06:52:39.854Z,1009.42
2016-09-18T06:53:20.389Z,1009.38
2016-09-18T06:54:00.938Z,1009.38
2016-09-18T06:54:41.483Z,1009.37
2016-09-18T06:55:22.031Z,1009.46
2016-09-18T06:56:02.573Z,1009.41
2016-09-18T06:56:43.109Z,1009.41
2016-09-18T06:57:23.675Z,1009.39
2016-09-18T06:58:04.223Z,1009.39
2016-09-18T06:58:44.748Z,1009.41
2016-09-18T06:59:25.289Z,1009.43
2016-09-18T07:00:05.821Z,1009.45
2016-09-18T07:00:46.352Z,1009.39
2016-09-18T07:01:26.922Z,1009.41
2016-09-18T07:02:07.470Z,1009.4
2016-09-18T07:02:48.008Z,1009.44
2016-09-18T07:03:28.558Z,1009.43
2016-09-18T07:04:09.099Z,1009.44
2016-09-18T07:04:49.649Z,1009.46
2016-09-18T07:05:30.199Z,1009.46
2016-09-18T07:06:11.002Z,1009.49
2016-09-18T07:06:51.544Z,1009.47
2016-09-18T07:07:32.233Z,1009.47
2016-09-18T07:08:12.798Z,1009.48
2016-09-18T07:08:53.349Z,1009.51
2016-09-18T07:09:34.029Z,1009.53
2016-09-18T07:10:14.680Z,1009.52
2016-09-18T07:10:55.220Z,1009.53
2016-09-18T07:11:35.771Z,1009.52
2016-09-18T07:12:16.315Z,1009.52
2016-09-18T07:12:56.840Z,1009.5
2016-09-18T07:13:37.389Z,1009.52
2016-09-18T07:14:17.928Z,1009.51
2016-09-18T07:14:58.474Z,1009.55
2016-09-18T07:15:39.019Z,1009.5
2016-09-18T07:16:19.559Z,1009.56
2016-09-18T07:17:00.111Z,1009.54
2016-09-18T07:17:40.653Z,1009.57
2016-09-18T07:18:21.470Z,1009.57
2016-09-18T07:19:02.017Z,1009.54
2016-09-18T07:19:42.552Z,1009.54
2016-09-18T07:20:23.092Z,1009.5
2016-09-18T07:21:03.637Z,1009.46
2016-09-18T07:21:44.159Z,1009.48
2016-09-18T07:22:24.713Z,1009.47
2016-09-18T07:23:05.253Z,1009.46
2016-09-18T07:23:45.782Z,1009.49
2016-09-18T07:24:26.304Z,1009.49
2016-09-18T07:25:06.854Z,1009.5
2016-09-18T07:25:47.375Z,1009.48
2016-09-18T07:26:27.916Z,1009.46
2016-09-18T07:27:08.466Z,1009.47
2016-09-18T07:27:49.000Z,1009.49
2016-09-18T07:28:29.545Z,1009.49
2016-09-18T07:29:10.067Z,1009.48
2016-09-18T07:29:50.611Z,1009.44
2016-09-18T07:30:31.143Z,1009.43
2016-09-18T07:31:11.691Z,1009.43
2016-09-18T07:31:52.217Z,1009.45
2016-09-18T07:32:32.758Z,1009.41
2016-09-18T07:33:13.383Z,1009.4
2016-09-18T07:33:53.917Z,1009.41
2016-09-18T07:34:34.467Z,1009.43
2016-09-18T07:35:15.076Z,1009.44
2016-09-18T07:35:55.731Z,1009.46
2016-09-18T07:36:36.286Z,1009.47
2016-09-18T07:37:16.829Z,1009.51
2016-09-18T07:37:57.377Z,1009.47
2016-09-18T07:38:37.961Z,1009.49
2016-09-18T07:39:18.431Z,1009.51
2016-09-18T07:39:58.998Z,1009.5
2016-09-18T07:40:39.552Z,1009.5
2016-09-18T07:41:20.066Z,1009.52
2016-09-18T07:42:00.575Z,1009.53
2016-09-18T07:42:41.110Z,1009.52
2016-09-18T07:43:21.630Z,1009.52
2016-09-18T07:44:02.153Z,1009.52
2016-09-18T07:44:42.696Z,1009.52
2016-09-18T07:45:23.250Z,1009.49
2016-09-18T07:46:03.821Z,1009.51
2016-09-18T07:46:44.349Z,1009.49
2016-09-18T07:47:24.924Z,1009.51
2016-09-18T07:48:05.451Z,1009.47
2016-09-18T07:48:45.993Z,1009.5
2016-09-18T07:49:26.501Z,1009.47
2016-09-18T07:50:07.071Z,1009.52
2016-09-18T07:50:47.564Z,1009.5
2016-09-18T07:51:28.182Z,1009.54
2016-09-18T07:52:08.732Z,1009.55
2016-09-18T07:52:49.378Z,1009.5
2016-09-18T07:53:30.002Z,1009.55
2016-09-18T07:54:10.528Z,1009.52
2016-09-18T07:54:51.050Z,1009.56
2016-09-18T07:55:31.580Z,1009.57
2016-09-18T07:56:12.137Z,1009.54
2016-09-18T07:56:52.766Z,1009.58
2016-09-18T07:57:33.300Z,1009.57
2016-09-18T07:58:13.827Z,1009.61
2016-09-18T07:58:54.386Z,1009.55
2016-09-18T07:59:34.923Z,1009.58
2016-09-18T08:00:15.461Z,1009.61
2016-09-18T08:00:55.988Z,1009.63
2016-09-18T08:01:36.537Z,1009.64
2016-09-18T08:02:17.077Z,1009.59
2016-09-18T08:02:57.609Z,1009.64
2016-09-18T08:03:38.148Z,1009.63
2016-09-18T08:04:18.684Z,1009.62
2016-09-18T08:04:59.457Z,1009.64
2016-09-18T08:05:40.003Z,1009.66
2016-09-18T08:06:20.523Z,1009.68
2016-09-18T08:07:01.060Z,1009.64
2016-09-18T08:07:41.612Z,1009.65
2016-09-18T08:08:22.148Z,1009.64
2016-09-18T08:09:02.682Z,1009.67
2016-09-18T08:09:43.216Z,1009.7
2016-09-18T08:10:23.761Z,1009.71
2016-09-18T08:11:04.302Z,1009.67
2016-09-18T08:11:44.846Z,1009.65
2016-09-18T08:12:25.401Z,1009.67
2016-09-18T08:13:05.934Z,1009.7
2016-09-18T08:13:46.481Z,1009.7